Time;durP1;ratioP1;P1;durP2;ratioP2;P2;SDS_P1;SDS_P2;PMS_P1;PMS_P2;Temp;Humidity;BMP_temperature;BMP_pressure;BME280_temperature;BME280_humidity;BME280_pressure;Samples;Min_cycle;Max_cycle;Signal;HPM_P1;HPM_P2
2021/12/30 00:01:50;;;;;;;;;;;10.40;99.90;;;;;;5035034;28;19921;-75
2021/12/30 00:04:22;;;;;;;;;;;10.40;99.90;;;;;;5067908;28;19921;-75
2021/12/30 00:06:49;;;;;;;;;;;10.40;99.90;;;;;;5034972;28;19921;-75
2021/12/30 00:09:21;;;;;;;;;;;10.40;99.90;;;;;;5035064;28;20385;-75
2021/12/30 00:11:48;;;;;;;;;;;10.40;99.90;;;;;;5035021;28;19963;-75
2021/12/30 00:14:20;;;;;;;;;;;10.40;99.90;;;;;;5034397;28;19943;-75
2021/12/30 00:16:46;;;;;;;;;;;10.40;99.90;;;;;;5052522;28;19971;-75
2021/12/30 00:19:18;;;;;;;;;;;10.40;99.90;;;;;;5052557;28;20473;-75
2021/12/30 00:21:45;;;;;;;;;;;10.40;99.90;;;;;;5051375;28;19920;-75
2021/12/30 00:24:16;;;;;;;;;;;10.40;99.90;;;;;;5051373;28;20460;-75
2021/12/30 00:26:49;;;;;;;;;;;10.50;99.90;;;;;;5034842;28;19960;-75
2021/12/30 00:29:16;;;;;;;;;;;10.50;99.90;;;;;;5034449;28;20023;-75
2021/12/30 00:31:48;;;;;;;;;;;10.50;99.90;;;;;;5050422;28;20340;-75
2021/12/30 00:34:21;;;;;;;;;;;10.60;99.90;;;;;;5034163;28;19943;-75
2021/12/30 00:36:52;;;;;;;;;;;10.60;99.90;;;;;;5052401;28;19921;-75
2021/12/30 00:39:25;;;;;;;;;;;10.60;99.90;;;;;;5050149;28;19924;-75
2021/12/30 00:41:52;;;;;;;;;;;10.60;99.90;;;;;;5050945;28;19960;-75
2021/12/30 00:44:24;;;;;;;;;;;10.50;99.90;;;;;;5051750;28;20388;-75
2021/12/30 00:46:58;;;;;;;;;;;10.60;99.90;;;;;;5035323;28;19967;-75
2021/12/30 00:49:30;;;;;;;;;;;10.60;99.90;;;;;;5034346;28;19960;-76
2021/12/30 00:52:02;;;;;;;;;;;10.60;99.90;;;;;;5050171;28;20447;-75
2021/12/30 00:54:33;;;;;;;;;;;10.60;99.90;;;;;;5067020;28;20372;-75
2021/12/30 00:57:00;;;;;;;;;;;10.60;99.90;;;;;;5050486;28;19920;-75
2021/12/30 00:59:27;;;;;;;;;;;10.60;99.90;;;;;;5017686;28;20086;-75
2021/12/30 01:01:58;;;;;;;;;;;10.60;99.90;;;;;;5035264;28;20429;-75
2021/12/30 01:04:25;;;;;;;;;;;10.70;99.90;;;;;;5033368;28;20023;-75
2021/12/30 01:06:52;;;;;;;;;;;10.70;99.90;;;;;;5052086;28;19927;-75
2021/12/30 01:09:25;;;;;;;;;;;10.70;99.90;;;;;;5033966;28;20023;-75
2021/12/30 01:11:58;;;;;;;;;;;10.70;99.90;;;;;;5067292;28;19924;-74
2021/12/30 01:14:31;;;;;;;;;;;10.70;99.90;;;;;;5033397;28;20281;-75
2021/12/30 01:17:16;;;;;;;;;;;10.80;99.90;;;;;;5049460;28;19927;-76
2021/12/30 01:19:44;;;;;;;;;;;10.70;99.90;;;;;;5034091;28;20027;-75
2021/12/30 01:22:20;;;;;;;;;;;10.80;99.90;;;;;;5051460;28;19921;-75
2021/12/30 01:24:47;;;;;;;;;;;10.80;99.90;;;;;;5033397;28;19929;-75
2021/12/30 01:27:20;;;;;;;;;;;10.80;99.90;;;;;;5034567;28;19931;-75
2021/12/30 01:29:47;;;;;;;;;;;10.80;99.90;;;;;;5049344;28;20500;-75
2021/12/30 01:32:19;;;;;;;;;;;10.80;99.90;;;;;;5034559;28;20423;-75
2021/12/30 01:34:48;;;;;;;;;;;10.70;99.90;;;;;;5033665;28;20373;-75
2021/12/30 01:37:22;;;;;;;;;;;10.70;99.90;;;;;;5018033;28;19924;-75
2021/12/30 01:39:54;;;;;;;;;;;10.80;99.90;;;;;;5033824;28;19927;-75
2021/12/30 01:42:20;;;;;;;;;;;10.80;99.90;;;;;;5014864;28;19935;-75
2021/12/30 01:44:48;;;;;;;;;;;10.80;99.90;;;;;;5027085;28;19974;-75
2021/12/30 01:47:19;;;;;;;;;;;10.90;99.90;;;;;;5032415;28;20173;-75
2021/12/30 01:49:51;;;;;;;;;;;10.90;99.90;;;;;;5017580;28;19927;-75
2021/12/30 01:52:23;;;;;;;;;;;11.00;99.90;;;;;;5033510;28;20300;-75
2021/12/30 01:54:50;;;;;;;;;;;11.00;99.90;;;;;;5033910;28;19924;-75
2021/12/30 01:57:21;;;;;;;;;;;11.00;99.90;;;;;;5035190;28;19942;-75
2021/12/30 01:59:49;;;;;;;;;;;11.00;99.90;;;;;;5034147;28;20015;-75
2021/12/30 02:02:16;;;;;;;;;;;11.00;99.90;;;;;;5033145;28;19925;-75
2021/12/30 02:04:48;;;;;;;;;;;11.00;99.90;;;;;;5033706;28;19927;-75
2021/12/30 02:07:15;;;;;;;;;;;11.00;99.90;;;;;;5032981;28;20460;-75
2021/12/30 02:09:46;;;;;;;;;;;11.00;99.90;;;;;;5017617;28;20465;-75
2021/12/30 02:12:18;;;;;;;;;;;11.00;99.90;;;;;;5033286;28;20171;-76
2021/12/30 02:14:50;;;;;;;;;;;11.00;99.90;;;;;;5033460;28;20011;-75
2021/12/30 02:17:22;;;;;;;;;;;11.00;99.90;;;;;;5033337;28;19921;-75
2021/12/30 02:19:49;;;;;;;;;;;11.00;99.90;;;;;;5033466;28;20411;-75
2021/12/30 02:22:21;;;;;;;;;;;11.00;99.90;;;;;;5049398;28;19999;-76
2021/12/30 02:24:56;;;;;;;;;;;11.00;99.90;;;;;;5032847;28;20031;-76
2021/12/30 02:27:27;;;;;;;;;;;11.00;99.90;;;;;;5050416;28;20473;-75
2021/12/30 02:29:55;;;;;;;;;;;10.90;99.90;;;;;;5032758;28;19969;-76
2021/12/30 02:32:22;;;;;;;;;;;10.90;99.90;;;;;;5049227;28;20405;-76
2021/12/30 02:34:49;;;;;;;;;;;10.90;99.90;;;;;;5032538;28;20457;-76
2021/12/30 02:37:16;;;;;;;;;;;10.90;99.90;;;;;;5033303;28;19921;-75
2021/12/30 02:39:47;;;;;;;;;;;10.90;99.90;;;;;;5033747;28;20023;-75
2021/12/30 02:42:20;;;;;;;;;;;10.90;99.90;;;;;;5033161;28;20442;-75
2021/12/30 02:44:47;;;;;;;;;;;10.90;99.90;;;;;;5033102;28;19931;-75
2021/12/30 02:47:19;;;;;;;;;;;10.90;99.90;;;;;;5017950;28;19924;-75
2021/12/30 02:49:45;;;;;;;;;;;11.00;99.90;;;;;;5036940;28;19927;-75
2021/12/30 02:52:13;;;;;;;;;;;11.00;99.90;;;;;;5053504;28;20328;-75
2021/12/30 02:54:44;;;;;;;;;;;11.00;99.90;;;;;;5036566;28;19921;-75
2021/12/30 02:57:11;;;;;;;;;;;11.00;99.90;;;;;;5036457;28;20016;-75
2021/12/30 02:59:38;;;;;;;;;;;11.00;99.90;;;;;;5054356;28;20381;-75
2021/12/30 03:02:11;;;;;;;;;;;11.00;99.90;;;;;;5036575;28;19971;-75
2021/12/30 03:04:37;;;;;;;;;;;11.10;99.90;;;;;;5036041;28;19963;-76
2021/12/30 03:07:10;;;;;;;;;;;11.10;99.90;;;;;;5036218;28;19931;-76
2021/12/30 03:09:37;;;;;;;;;;;11.10;99.90;;;;;;5036514;28;20285;-76
2021/12/30 03:12:07;;;;;;;;;;;11.10;99.90;;;;;;5036822;28;20324;-76
2021/12/30 03:14:41;;;;;;;;;;;11.10;99.90;;;;;;5036181;28;20339;-76
2021/12/30 03:17:13;;;;;;;;;;;11.10;99.90;;;;;;5036226;28;19921;-76
2021/12/30 03:19:40;;;;;;;;;;;11.10;99.90;;;;;;5036011;28;20023;-75
2021/12/30 03:22:06;;;;;;;;;;;11.20;99.90;;;;;;5036242;28;20015;-76
2021/12/30 03:24:35;;;;;;;;;;;11.10;99.90;;;;;;5035650;28;19921;-75
2021/12/30 03:27:09;;;;;;;;;;;11.10;99.90;;;;;;5052294;28;20381;-76
2021/12/30 03:29:36;;;;;;;;;;;11.10;99.90;;;;;;5035842;28;19967;-76
2021/12/30 03:32:03;;;;;;;;;;;11.10;99.90;;;;;;5035867;28;20019;-76
2021/12/30 03:34:30;;;;;;;;;;;11.10;99.90;;;;;;5035821;28;19963;-75
2021/12/30 03:36:56;;;;;;;;;;;11.10;99.90;;;;;;5036008;28;20456;-76
2021/12/30 03:39:24;;;;;;;;;;;11.10;99.90;;;;;;5052501;28;19985;-75
2021/12/30 03:41:51;;;;;;;;;;;11.10;99.90;;;;;;5035771;28;19921;-76
2021/12/30 03:44:19;;;;;;;;;;;11.00;99.90;;;;;;5018923;28;20393;-75
2021/12/30 03:46:50;;;;;;;;;;;11.10;99.90;;;;;;5035568;28;19921;-75
2021/12/30 03:49:16;;;;;;;;;;;11.10;99.90;;;;;;5035676;28;19967;-75
2021/12/30 03:51:43;;;;;;;;;;;11.10;99.90;;;;;;5051955;28;20013;-76
2021/12/30 03:54:10;;;;;;;;;;;11.00;99.90;;;;;;5035319;28;20363;-75
2021/12/30 03:56:43;;;;;;;;;;;11.10;99.90;;;;;;5035466;28;19924;-75
2021/12/30 03:59:14;;;;;;;;;;;11.00;99.90;;;;;;5034150;28;19927;-75
2021/12/30 04:01:41;;;;;;;;;;;11.00;99.90;;;;;;5052054;28;19974;-75
2021/12/30 04:04:13;;;;;;;;;;;11.00;99.90;;;;;;5035007;28;20404;-75
2021/12/30 04:06:39;;;;;;;;;;;11.00;99.90;;;;;;5035354;28;19947;-75
2021/12/30 04:09:06;;;;;;;;;;;11.10;99.90;;;;;;5035300;28;20296;-75
2021/12/30 04:11:38;;;;;;;;;;;11.10;99.90;;;;;;5035053;28;20036;-75
2021/12/30 04:14:05;;;;;;;;;;;11.10;99.90;;;;;;5051368;28;19950;-75
2021/12/30 04:16:33;;;;;;;;;;;11.10;99.90;;;;;;5051758;28;19921;-75
2021/12/30 04:19:00;;;;;;;;;;;11.10;99.90;;;;;;5034951;28;19921;-75
2021/12/30 04:21:31;;;;;;;;;;;11.10;99.90;;;;;;5035072;28;19921;-75
2021/12/30 04:24:03;;;;;;;;;;;11.10;99.90;;;;;;5034543;28;19950;-75
2021/12/30 04:26:30;;;;;;;;;;;11.20;99.90;;;;;;5034851;28;19929;-75
2021/12/30 04:28:57;;;;;;;;;;;11.10;99.90;;;;;;5034629;28;20296;-75
2021/12/30 04:31:28;;;;;;;;;;;11.10;99.90;;;;;;5034968;28;19920;-75
2021/12/30 04:33:55;;;;;;;;;;;11.10;99.90;;;;;;5034496;28;19920;-75
2021/12/30 04:36:26;;;;;;;;;;;11.10;99.90;;;;;;5034822;28;20117;-75
2021/12/30 04:38:55;;;;;;;;;;;11.10;99.90;;;;;;5051198;28;20020;-75
2021/12/30 04:41:26;;;;;;;;;;;11.10;99.90;;;;;;5034655;28;19920;-75
2021/12/30 04:43:58;;;;;;;;;;;11.10;99.90;;;;;;5033986;28;20314;-75
2021/12/30 04:46:26;;;;;;;;;;;11.20;99.90;;;;;;5034594;28;19921;-75
2021/12/30 04:48:53;;;;;;;;;;;11.10;99.90;;;;;;5034414;28;19925;-75
2021/12/30 04:51:25;;;;;;;;;;;11.10;99.90;;;;;;5033722;28;19971;-75
2021/12/30 04:53:52;;;;;;;;;;;11.10;99.90;;;;;;5049100;28;19921;-75
2021/12/30 04:56:19;;;;;;;;;;;11.10;99.90;;;;;;5033813;28;20292;-75
2021/12/30 04:58:46;;;;;;;;;;;11.20;99.90;;;;;;5034186;28;19968;-75
2021/12/30 05:01:18;;;;;;;;;;;11.20;99.90;;;;;;5034362;28;19925;-75
2021/12/30 05:03:45;;;;;;;;;;;11.10;99.90;;;;;;5033605;28;19920;-75
2021/12/30 05:06:19;;;;;;;;;;;11.10;99.90;;;;;;5035124;28;19932;-75
2021/12/30 05:08:47;;;;;;;;;;;11.10;99.90;;;;;;5033825;28;20380;-75
2021/12/30 05:11:19;;;;;;;;;;;11.10;99.90;;;;;;5033231;28;19974;-75
2021/12/30 05:13:47;;;;;;;;;;;11.20;99.90;;;;;;5049872;28;19925;-75
2021/12/30 05:16:15;;;;;;;;;;;11.20;99.90;;;;;;5033489;28;19963;-75
2021/12/30 05:18:42;;;;;;;;;;;11.20;99.90;;;;;;5033414;28;20023;-75
2021/12/30 05:21:10;;;;;;;;;;;11.30;99.90;;;;;;5033578;28;20007;-75
2021/12/30 05:23:37;;;;;;;;;;;11.30;99.90;;;;;;5033113;28;19929;-75
2021/12/30 05:26:09;;;;;;;;;;;11.30;99.90;;;;;;5017680;28;19975;-75
2021/12/30 05:28:41;;;;;;;;;;;11.30;99.90;;;;;;5033490;28;19927;-75
2021/12/30 05:31:13;;;;;;;;;;;11.30;99.90;;;;;;5034302;28;19927;-75
2021/12/30 05:33:45;;;;;;;;;;;11.30;99.90;;;;;;5050011;28;19927;-75
2021/12/30 05:36:17;;;;;;;;;;;11.30;99.90;;;;;;5018204;28;19927;-75
2021/12/30 05:38:44;;;;;;;;;;;11.20;99.90;;;;;;5033886;28;20249;-75
2021/12/30 05:41:15;;;;;;;;;;;11.20;99.90;;;;;;5033738;28;20399;-75
2021/12/30 05:43:42;;;;;;;;;;;11.20;99.90;;;;;;5050052;28;19967;-75
2021/12/30 05:46:10;;;;;;;;;;;11.20;99.90;;;;;;5033482;28;19982;-76
2021/12/30 05:48:37;;;;;;;;;;;11.20;99.90;;;;;;5033532;28;20083;-75
2021/12/30 05:51:03;;;;;;;;;;;11.20;99.90;;;;;;5033614;28;20392;-75
2021/12/30 05:53:39;;;;;;;;;;;11.20;99.90;;;;;;5033107;28;19921;-75
2021/12/30 05:56:06;;;;;;;;;;;11.20;99.90;;;;;;5033732;28;19925;-75
2021/12/30 05:58:38;;;;;;;;;;;11.20;99.90;;;;;;5032913;28;19947;-75
2021/12/30 06:01:04;;;;;;;;;;;11.20;99.90;;;;;;5033694;28;19924;-75
2021/12/30 06:03:31;;;;;;;;;;;11.20;99.90;;;;;;5033040;28;19920;-75
2021/12/30 06:05:58;;;;;;;;;;;11.20;99.90;;;;;;5033447;28;20360;-75
2021/12/30 06:08:28;;;;;;;;;;;11.20;99.90;;;;;;5050061;28;19931;-75
2021/12/30 06:10:54;;;;;;;;;;;11.20;99.90;;;;;;5051438;28;19921;-75
2021/12/30 06:13:21;;;;;;;;;;;11.20;99.90;;;;;;5049649;28;20027;-75
2021/12/30 06:15:53;;;;;;;;;;;11.20;99.90;;;;;;5033549;28;19927;-75
2021/12/30 06:18:24;;;;;;;;;;;11.20;99.90;;;;;;5033651;28;19932;-75
2021/12/30 06:20:51;;;;;;;;;;;11.20;99.90;;;;;;5033476;28;19927;-75
2021/12/30 06:23:18;;;;;;;;;;;11.20;99.90;;;;;;5035283;28;19931;-75
2021/12/30 06:25:44;;;;;;;;;;;11.20;99.90;;;;;;5035115;28;20035;-76
2021/12/30 06:28:16;;;;;;;;;;;11.20;99.90;;;;;;5035460;28;20501;-76
2021/12/30 06:30:48;;;;;;;;;;;11.10;99.90;;;;;;5034079;28;19931;-76
2021/12/30 06:33:14;;;;;;;;;;;11.10;99.90;;;;;;5046174;28;19921;-76
2021/12/30 06:35:41;;;;;;;;;;;11.10;99.90;;;;;;5035330;28;19964;-76
2021/12/30 06:38:08;;;;;;;;;;;11.10;99.90;;;;;;5030777;28;19924;-76
2021/12/30 06:40:37;;;;;;;;;;;11.10;99.90;;;;;;5019605;28;20016;-75
2021/12/30 06:43:09;;;;;;;;;;;11.10;99.90;;;;;;5019931;28;20395;-76
2021/12/30 06:45:40;;;;;;;;;;;11.10;99.90;;;;;;5027859;28;19921;-76
2021/12/30 06:48:07;;;;;;;;;;;11.10;99.90;;;;;;5050166;28;19925;-76
2021/12/30 06:50:42;;;;;;;;;;;11.10;99.90;;;;;;5036430;28;19955;-75
2021/12/30 06:53:13;;;;;;;;;;;11.10;99.90;;;;;;5020303;28;19956;-75
2021/12/30 06:55:46;;;;;;;;;;;11.10;99.90;;;;;;5036799;28;20355;-76
2021/12/30 06:58:18;;;;;;;;;;;11.10;99.90;;;;;;5053790;28;19920;-75
2021/12/30 07:00:46;;;;;;;;;;;11.10;99.90;;;;;;5031762;28;19920;-75
2021/12/30 07:03:12;;;;;;;;;;;11.10;99.90;;;;;;5014615;28;19928;-75
2021/12/30 07:05:39;;;;;;;;;;;11.10;99.90;;;;;;5017952;28;19920;-75
2021/12/30 07:08:11;;;;;;;;;;;11.10;99.90;;;;;;5037672;28;20273;-75
2021/12/30 07:10:37;;;;;;;;;;;11.10;99.90;;;;;;5035447;28;19943;-75
2021/12/30 07:13:04;;;;;;;;;;;11.10;99.90;;;;;;5037205;28;19924;-75
2021/12/30 07:15:36;;;;;;;;;;;11.10;99.90;;;;;;5053657;28;19920;-76
2021/12/30 07:18:07;;;;;;;;;;;11.10;99.90;;;;;;5020315;28;19921;-76
2021/12/30 07:20:34;;;;;;;;;;;11.10;99.90;;;;;;5036226;28;20613;-75
2021/12/30 07:23:01;;;;;;;;;;;11.10;99.90;;;;;;5036845;28;19935;-76
2021/12/30 07:25:32;;;;;;;;;;;11.20;99.90;;;;;;5019799;28;19959;-75
2021/12/30 07:28:03;;;;;;;;;;;11.20;99.90;;;;;;5018641;28;19927;-76
2021/12/30 07:30:37;;;;;;;;;;;11.20;99.90;;;;;;5035320;28;19921;-75
2021/12/30 07:33:09;;;;;;;;;;;11.20;99.90;;;;;;5027249;28;20414;-76
2021/12/30 07:35:38;;;;;;;;;;;11.20;99.90;;;;;;5035418;28;19925;-75
2021/12/30 07:38:10;;;;;;;;;;;11.20;99.90;;;;;;5028661;28;20412;-76
2021/12/30 07:40:37;;;;;;;;;;;11.20;99.90;;;;;;5052327;28;19982;-75
2021/12/30 07:43:09;;;;;;;;;;;11.20;99.90;;;;;;5021009;28;19925;-75
2021/12/30 07:45:36;;;;;;;;;;;11.20;99.90;;;;;;5035114;28;19920;-75
2021/12/30 07:48:08;;;;;;;;;;;11.30;99.90;;;;;;5024735;28;19920;-75
2021/12/30 07:50:35;;;;;;;;;;;11.30;99.90;;;;;;5032344;28;20320;-75
2021/12/30 07:53:02;;;;;;;;;;;11.30;99.90;;;;;;5018315;28;19927;-75
2021/12/30 07:55:28;;;;;;;;;;;11.30;99.90;;;;;;5032362;28;20011;-75
2021/12/30 07:57:57;;;;;;;;;;;11.40;99.90;;;;;;5052801;28;19920;-75
2021/12/30 08:00:27;;;;;;;;;;;11.30;99.90;;;;;;5051721;28;19928;-75
2021/12/30 08:02:54;;;;;;;;;;;11.40;99.90;;;;;;5034805;28;19927;-75
2021/12/30 08:05:21;;;;;;;;;;;11.40;99.90;;;;;;5028004;28;19920;-76
2021/12/30 08:07:49;;;;;;;;;;;11.40;99.90;;;;;;5032575;28;20390;-75
2021/12/30 08:10:22;;;;;;;;;;;11.40;99.90;;;;;;5015036;28;20297;-75
2021/12/30 08:12:49;;;;;;;;;;;11.40;99.90;;;;;;5017471;28;20018;-75
2021/12/30 08:15:21;;;;;;;;;;;11.40;99.90;;;;;;5031159;28;19920;-76
2021/12/30 08:17:54;;;;;;;;;;;11.50;99.90;;;;;;5028015;28;19921;-76
2021/12/30 08:20:23;;;;;;;;;;;11.50;99.90;;;;;;5033389;28;20039;-76
2021/12/30 08:22:51;;;;;;;;;;;11.50;99.90;;;;;;5038399;28;20015;-75
2021/12/30 08:25:22;;;;;;;;;;;11.50;99.90;;;;;;5030322;28;19921;-76
2021/12/30 08:27:50;;;;;;;;;;;11.60;99.90;;;;;;5015829;28;20023;-76
2021/12/30 08:30:19;;;;;;;;;;;11.60;99.90;;;;;;5034393;28;19921;-76
2021/12/30 08:32:52;;;;;;;;;;;11.70;99.90;;;;;;5030425;28;19958;-76
2021/12/30 08:35:25;;;;;;;;;;;11.70;99.90;;;;;;5013044;28;20519;-75
2021/12/30 08:37:54;;;;;;;;;;;11.70;99.90;;;;;;5067093;28;19925;-76
2021/12/30 08:40:21;;;;;;;;;;;11.70;99.90;;;;;;5050612;28;19920;-76
2021/12/30 08:42:48;;;;;;;;;;;11.70;99.90;;;;;;5033729;28;19920;-75
2021/12/30 08:45:19;;;;;;;;;;;11.80;99.90;;;;;;5033232;28;19924;-76
2021/12/30 08:47:51;;;;;;;;;;;11.80;99.90;;;;;;5033801;28;20029;-76
2021/12/30 08:50:25;;;;;;;;;;;11.90;99.90;;;;;;5066397;28;19920;-76
2021/12/30 08:52:56;;;;;;;;;;;11.90;99.90;;;;;;5048842;28;19920;-76
2021/12/30 08:55:23;;;;;;;;;;;11.90;99.90;;;;;;5016253;28;20665;-75
2021/12/30 08:57:55;;;;;;;;;;;11.90;99.90;;;;;;5033685;28;19927;-76
2021/12/30 09:00:26;;;;;;;;;;;11.90;99.90;;;;;;5032112;28;19975;-75
2021/12/30 09:02:54;;;;;;;;;;;11.90;99.90;;;;;;5051055;28;19955;-76
2021/12/30 09:05:21;;;;;;;;;;;11.90;99.90;;;;;;5050017;28;19944;-76
2021/12/30 09:07:54;;;;;;;;;;;11.90;99.90;;;;;;5017911;28;19920;-76
2021/12/30 09:10:21;;;;;;;;;;;11.90;99.90;;;;;;5051727;28;19921;-75
2021/12/30 09:12:53;;;;;;;;;;;11.90;99.90;;;;;;5033149;28;19920;-76
2021/12/30 09:15:25;;;;;;;;;;;11.90;99.90;;;;;;5033728;28;20393;-75
2021/12/30 09:17:54;;;;;;;;;;;11.90;99.90;;;;;;5017155;28;19925;-75
2021/12/30 09:20:21;;;;;;;;;;;11.90;99.90;;;;;;5030945;28;19920;-77
2021/12/30 09:22:49;;;;;;;;;;;11.90;99.90;;;;;;5048425;28;20012;-75
2021/12/30 09:25:24;;;;;;;;;;;12.00;99.90;;;;;;5033517;28;19960;-74
2021/12/30 09:27:56;;;;;;;;;;;12.00;99.90;;;;;;5033187;28;19927;-75
2021/12/30 09:30:24;;;;;;;;;;;12.00;99.90;;;;;;5051261;28;20036;-75
2021/12/30 09:32:59;;;;;;;;;;;12.00;99.90;;;;;;5032816;28;19921;-74
2021/12/30 09:35:26;;;;;;;;;;;12.00;99.90;;;;;;5050075;28;19975;-74
2021/12/30 09:37:53;;;;;;;;;;;12.10;99.90;;;;;;5033774;28;19920;-76
2021/12/30 09:40:22;;;;;;;;;;;12.10;99.90;;;;;;5023166;28;20435;-75
2021/12/30 09:42:52;;;;;;;;;;;12.20;99.90;;;;;;5012963;28;20017;-76
2021/12/30 09:45:19;;;;;;;;;;;12.20;99.90;;;;;;5013589;28;19925;-75
2021/12/30 09:47:52;;;;;;;;;;;12.20;99.90;;;;;;5013315;28;20019;-75
2021/12/30 09:50:29;;;;;;;;;;;12.20;99.90;;;;;;5014437;28;20026;-75
2021/12/30 09:52:57;;;;;;;;;;;12.20;99.90;;;;;;5043180;28;19921;-75
2021/12/30 09:55:25;;;;;;;;;;;12.20;99.90;;;;;;5047113;28;20011;-76
2021/12/30 09:57:52;;;;;;;;;;;12.20;99.90;;;;;;5015603;28;20359;-76
2021/12/30 10:00:25;;;;;;;;;;;12.20;99.90;;;;;;5034506;28;19944;-76
2021/12/30 10:02:57;;;;;;;;;;;12.30;99.90;;;;;;5016188;28;19921;-76
2021/12/30 10:05:25;;;;;;;;;;;12.30;99.90;;;;;;5035238;28;19921;-75
2021/12/30 10:08:10;;;;;;;;;;;12.30;99.90;;;;;;5017938;28;20024;-76
2021/12/30 10:10:47;;;;;;;;;;;12.30;99.90;;;;;;5033019;28;19920;-76
2021/12/30 10:13:24;;;;;;;;;;;12.40;99.90;;;;;;5015852;28;19925;-76
2021/12/30 10:15:53;;;;;;;;;;;12.50;99.90;;;;;;5047953;28;20039;-76
2021/12/30 10:18:22;;;;;;;;;;;12.60;99.90;;;;;;5033323;28;20027;-76
2021/12/30 10:20:50;;;;;;;;;;;12.60;99.90;;;;;;5038072;28;19921;-75
2021/12/30 10:23:24;;;;;;;;;;;12.70;99.90;;;;;;5037083;28;20007;-75
2021/12/30 10:25:53;;;;;;;;;;;12.70;99.90;;;;;;5037543;28;19921;-75
2021/12/30 10:28:20;;;;;;;;;;;12.70;99.90;;;;;;5036757;28;19921;-75
2021/12/30 10:31:00;;;;;;;;;;;12.70;99.90;;;;;;5037691;28;19927;-76
2021/12/30 10:33:28;;;;;;;;;;;12.80;99.90;;;;;;5035515;28;20403;-76
2021/12/30 10:35:58;;;;;;;;;;;12.90;99.90;;;;;;5054321;28;19951;-75
2021/12/30 10:38:27;;;;;;;;;;;12.90;99.90;;;;;;5025564;28;19964;-76
2021/12/30 10:40:58;;;;;;;;;;;12.90;99.90;;;;;;5033801;28;19920;-74
2021/12/30 10:43:35;;;;;;;;;;;12.90;99.90;;;;;;5036204;28;19997;-76
2021/12/30 10:46:17;;;;;;;;;;;12.90;99.90;;;;;;5020746;28;20382;-76
2021/12/30 10:48:52;;;;;;;;;;;13.00;99.90;;;;;;5037592;28;19927;-76
2021/12/30 10:51:39;;;;;;;;;;;13.00;99.90;;;;;;5036422;28;19991;-75
2021/12/30 10:54:12;;;;;;;;;;;13.10;99.90;;;;;;5035989;28;19920;-76
2021/12/30 10:56:47;;;;;;;;;;;13.10;99.90;;;;;;5037336;28;20004;-75
2021/12/30 10:59:18;;;;;;;;;;;13.10;99.90;;;;;;5036522;28;19921;-76
2021/12/30 11:01:59;;;;;;;;;;;13.20;99.90;;;;;;5020563;28;20310;-75
2021/12/30 11:04:42;;;;;;;;;;;13.20;99.90;;;;;;5053580;28;20015;-75
2021/12/30 11:07:12;;;;;;;;;;;13.20;99.90;;;;;;5038109;28;19956;-75
2021/12/30 11:09:54;;;;;;;;;;;13.20;99.90;;;;;;5038677;28;19974;-76
2021/12/30 11:12:24;;;;;;;;;;;13.20;99.90;;;;;;5037088;28;19927;-77
2021/12/30 11:14:51;;;;;;;;;;;13.20;99.90;;;;;;5042142;28;20361;-76
2021/12/30 11:17:33;;;;;;;;;;;13.30;99.90;;;;;;5036957;28;19986;-75
2021/12/30 11:20:01;;;;;;;;;;;13.20;99.90;;;;;;5039012;28;20031;-75
2021/12/30 11:22:35;;;;;;;;;;;13.30;99.90;;;;;;5020152;28;19928;-75
2021/12/30 11:25:05;;;;;;;;;;;13.30;99.90;;;;;;5035877;28;20588;-75
2021/12/30 11:27:32;;;;;;;;;;;13.20;99.90;;;;;;5035903;28;19956;-76
2021/12/30 11:30:11;;;;;;;;;;;13.20;99.90;;;;;;5035746;28;19970;-75
2021/12/30 11:32:47;;;;;;;;;;;13.10;99.90;;;;;;5036281;28;20020;-75
2021/12/30 11:35:15;;;;;;;;;;;13.10;99.90;;;;;;5033184;28;20439;-76
2021/12/30 11:37:49;;;;;;;;;;;13.10;99.90;;;;;;5018079;28;19924;-76
2021/12/30 11:40:21;;;;;;;;;;;13.10;99.90;;;;;;5062901;28;19928;-76
2021/12/30 11:42:56;;;;;;;;;;;13.10;99.90;;;;;;5061891;28;19921;-75
2021/12/30 11:45:31;;;;;;;;;;;13.20;99.90;;;;;;5031237;28;19921;-75
2021/12/30 11:48:06;;;;;;;;;;;13.20;99.90;;;;;;5017270;28;20349;-76
2021/12/30 11:50:37;;;;;;;;;;;13.10;99.90;;;;;;5034566;28;19921;-76
2021/12/30 11:53:11;;;;;;;;;;;13.20;99.90;;;;;;5051443;28;20407;-75
2021/12/30 11:55:41;;;;;;;;;;;13.20;99.90;;;;;;5051680;28;20453;-76
2021/12/30 11:58:26;;;;;;;;;;;13.30;99.90;;;;;;5018026;28;20372;-76
2021/12/30 12:01:13;;;;;;;;;;;13.20;99.90;;;;;;5028064;28;19920;-75
2021/12/30 12:03:47;;;;;;;;;;;13.20;99.90;;;;;;5019955;28;19927;-75
2021/12/30 12:06:23;;;;;;;;;;;13.20;99.90;;;;;;5032508;28;19929;-75
2021/12/30 12:08:51;;;;;;;;;;;13.20;99.90;;;;;;5034285;28;19978;-77
2021/12/30 12:11:19;;;;;;;;;;;13.20;99.90;;;;;;5015415;28;19956;-76
2021/12/30 12:13:53;;;;;;;;;;;13.20;99.90;;;;;;5015858;28;19927;-75
2021/12/30 12:16:41;;;;;;;;;;;13.20;99.90;;;;;;5015026;28;20435;-75
2021/12/30 12:19:14;;;;;;;;;;;13.20;99.90;;;;;;5014782;28;20447;-75
2021/12/30 12:21:41;;;;;;;;;;;13.10;99.90;;;;;;5014400;28;19921;-75
2021/12/30 12:24:20;;;;;;;;;;;13.10;99.90;;;;;;5032252;28;19947;-76
2021/12/30 12:26:52;;;;;;;;;;;13.10;99.90;;;;;;4999370;28;19928;-74
2021/12/30 12:29:29;;;;;;;;;;;13.00;99.90;;;;;;5032392;28;19921;-75
2021/12/30 12:32:06;;;;;;;;;;;13.10;99.90;;;;;;5014936;28;19921;-75
2021/12/30 12:34:44;;;;;;;;;;;13.20;99.90;;;;;;5015525;28;19921;-75
2021/12/30 12:37:39;;;;;;;;;;;13.20;99.90;;;;;;5015826;28;19927;-75
2021/12/30 12:40:22;;;;;;;;;;;13.20;99.90;;;;;;5015586;28;19925;-75
2021/12/30 12:42:51;;;;;;;;;;;13.20;99.90;;;;;;5014374;28;19925;-74
2021/12/30 12:45:41;;;;;;;;;;;13.20;99.90;;;;;;5010895;28;19960;-74
2021/12/30 12:48:17;;;;;;;;;;;13.20;99.90;;;;;;5026688;28;19924;-75
2021/12/30 12:50:46;;;;;;;;;;;13.20;99.90;;;;;;5035536;28;19928;-74
2021/12/30 12:53:19;;;;;;;;;;;13.20;99.90;;;;;;5033858;28;19921;-74
2021/12/30 12:55:46;;;;;;;;;;;13.20;99.90;;;;;;5033719;28;19967;-75
2021/12/30 12:58:13;;;;;;;;;;;13.10;99.90;;;;;;5033891;28;19920;-75
2021/12/30 13:00:44;;;;;;;;;;;13.10;99.90;;;;;;5034734;28;19921;-76
2021/12/30 13:03:17;;;;;;;;;;;13.10;99.90;;;;;;5051664;28;19927;-76
2021/12/30 13:05:54;;;;;;;;;;;13.20;99.90;;;;;;5052048;28;20039;-76
2021/12/30 13:08:20;;;;;;;;;;;13.30;99.90;;;;;;5050661;28;20018;-75
2021/12/30 13:10:47;;;;;;;;;;;13.30;99.90;;;;;;5050405;28;19925;-74
2021/12/30 13:13:26;;;;;;;;;;;13.30;99.90;;;;;;5033470;28;20016;-75
2021/12/30 13:15:58;;;;;;;;;;;13.20;99.90;;;;;;5033681;28;19927;-75
2021/12/30 13:18:26;;;;;;;;;;;13.30;99.90;;;;;;5033595;28;20011;-74
2021/12/30 13:21:11;;;;;;;;;;;13.30;99.90;;;;;;5051350;28;20395;-75
2021/12/30 13:23:37;;;;;;;;;;;13.30;99.90;;;;;;5033005;28;20003;-75
2021/12/30 13:26:10;;;;;;;;;;;13.20;99.90;;;;;;5049248;28;19921;-75
2021/12/30 13:28:50;;;;;;;;;;;13.20;99.90;;;;;;5016901;28;20019;-74
2021/12/30 13:31:22;;;;;;;;;;;13.20;99.90;;;;;;5049826;28;20029;-75
2021/12/30 13:33:58;;;;;;;;;;;13.20;99.90;;;;;;5033457;28;20473;-76
2021/12/30 13:36:26;;;;;;;;;;;13.20;99.90;;;;;;5049979;28;19964;-75
2021/12/30 13:38:53;;;;;;;;;;;13.20;99.90;;;;;;5017199;28;20058;-74
2021/12/30 13:41:21;;;;;;;;;;;13.20;99.90;;;;;;5016971;28;19924;-74
2021/12/30 13:43:53;;;;;;;;;;;13.20;99.90;;;;;;5014717;28;19960;-75
2021/12/30 13:46:25;;;;;;;;;;;13.20;99.90;;;;;;5033224;28;19920;-75
2021/12/30 13:48:52;;;;;;;;;;;13.10;99.90;;;;;;5033253;28;19927;-75
2021/12/30 13:51:28;;;;;;;;;;;13.10;99.90;;;;;;5033487;28;19927;-75
2021/12/30 13:54:06;;;;;;;;;;;13.10;99.90;;;;;;5033808;28;20377;-75
2021/12/30 13:56:41;;;;;;;;;;;13.10;99.90;;;;;;5017381;28;20377;-75
2021/12/30 13:59:13;;;;;;;;;;;13.00;99.90;;;;;;5017723;28;19921;-75
2021/12/30 14:01:45;;;;;;;;;;;13.10;99.90;;;;;;5049434;28;19959;-74
2021/12/30 14:04:17;;;;;;;;;;;13.10;99.90;;;;;;5050716;28;19920;-75
2021/12/30 14:06:48;;;;;;;;;;;13.00;99.90;;;;;;5049011;28;19920;-75
2021/12/30 14:09:18;;;;;;;;;;;13.00;99.90;;;;;;5051054;28;19932;-75
2021/12/30 14:11:46;;;;;;;;;;;13.00;99.90;;;;;;5033544;28;20012;-75
2021/12/30 14:14:22;;;;;;;;;;;13.00;99.90;;;;;;5051731;28;19967;-75
2021/12/30 14:16:56;;;;;;;;;;;12.90;99.90;;;;;;5035234;28;20043;-75
2021/12/30 14:19:28;;;;;;;;;;;12.90;99.90;;;;;;5033783;28;19921;-76
2021/12/30 14:21:57;;;;;;;;;;;12.90;99.90;;;;;;5066753;28;19920;-75
2021/12/30 14:24:33;;;;;;;;;;;12.90;99.90;;;;;;5065572;28;19927;-75
2021/12/30 14:27:11;;;;;;;;;;;12.90;99.90;;;;;;5066224;28;19952;-75
2021/12/30 14:29:43;;;;;;;;;;;12.90;99.90;;;;;;5033130;28;20011;-75
2021/12/30 14:32:16;;;;;;;;;;;12.80;99.90;;;;;;5048749;28;19925;-75
2021/12/30 14:34:49;;;;;;;;;;;12.80;99.90;;;;;;5017133;28;19931;-75
2021/12/30 14:37:22;;;;;;;;;;;12.80;99.90;;;;;;5048777;28;19931;-75